Terminal Aerodrome Forecast
Issued by NWS Binghamton, NY

Home | Current Version | Previous Version | Text Only | Print | Product List | Glossary On
Versions: 1 2 3 4 5 6 7 8 9 10 11 12 13 14 15
000
FTUS41 KBGM 010800 AAA
TAFAVP
TAF AMD
KAVP 010853Z 0109/0206 VRB03KT P6SM OVC015
     FM011400 10005KT P6SM BKN025
     FM011600 14005KT P6SM BKN045
     FM020000 VRB03KT P6SM SCT035=

USA.gov is the U.S. government's official web portal to all federal, state and local government web resources and services.